Time;durP1;ratioP1;P1;durP2;ratioP2;P2;SDS_P1;SDS_P2;PMS_P1;PMS_P2;Temp;Humidity;BMP_temperature;BMP_pressure;BME280_temperature;BME280_humidity;BME280_pressure;Samples;Min_cycle;Max_cycle;Signal;HPM_P1;HPM_P2
2022/04/16 00:00:13;;;;;;;13.40;7.10;;;;;;;3.60;100.00;100103.22;103478;1300;24215;-29
2022/04/16 00:02:42;;;;;;;11.80;7.50;;;;;;;3.51;100.00;100103.50;103576;1300;25024;-25
2022/04/16 00:05:11;;;;;;;12.70;7.80;;;;;;;3.55;100.00;100102.61;103580;1300;22509;-25
2022/04/16 00:07:40;;;;;;;16.40;9.60;;;;;;;3.51;100.00;100109.73;103517;1300;22499;-25
2022/04/16 00:10:09;;;;;;;15.30;9.40;;;;;;;3.46;100.00;100108.53;103578;1300;24272;-29
2022/04/16 00:12:38;;;;;;;12.20;7.30;;;;;;;3.53;100.00;100110.77;103552;1300;22769;-24
2022/04/16 00:15:08;;;;;;;15.60;9.80;;;;;;;3.47;100.00;100106.92;103531;1300;24318;-25
2022/04/16 00:17:37;;;;;;;12.60;9.20;;;;;;;3.43;100.00;100115.03;103577;1300;23923;-25
2022/04/16 00:20:10;;;;;;;14.10;9.20;;;;;;;3.34;100.00;100114.21;103623;1300;25115;-31
2022/04/16 00:22:39;;;;;;;17.00;10.20;;;;;;;3.41;100.00;100114.48;103526;1300;23865;-26
2022/04/16 00:25:08;;;;;;;14.00;8.80;;;;;;;3.34;100.00;100119.49;103583;1300;22510;-29
2022/04/16 00:27:39;;;;;;;15.90;8.60;;;;;;;3.34;100.00;100120.75;103533;1300;24322;-25
2022/04/16 00:30:08;;;;;;;14.60;9.80;;;;;;;3.28;100.00;100122.67;103596;1300;23628;-29
2022/04/16 00:32:37;;;;;;;16.00;10.30;;;;;;;3.27;100.00;100121.17;103577;1300;25001;-25
2022/04/16 00:35:07;;;;;;;9.80;7.00;;;;;;;3.25;100.00;100123.11;103542;1300;23810;-32
2022/04/16 00:37:37;;;;;;;10.50;6.70;;;;;;;3.21;100.00;100120.86;103535;1299;24200;-31
2022/04/16 00:40:06;;;;;;;15.30;8.00;;;;;;;3.18;100.00;100124.80;103586;1300;24297;-31
2022/04/16 00:42:39;;;;;;;15.50;9.60;;;;;;;3.09;100.00;100123.44;103511;1301;25001;-25
2022/04/16 00:45:08;;;;;;;12.50;8.00;;;;;;;3.23;100.00;100129.45;103548;1300;22497;-25
2022/04/16 00:47:37;;;;;;;13.50;9.50;;;;;;;3.24;100.00;100127.80;103507;1300;23190;-29
2022/04/16 00:50:08;;;;;;;11.70;7.80;;;;;;;3.16;100.00;100137.84;103556;1302;22797;-29
2022/04/16 00:52:38;;;;;;;16.30;9.10;;;;;;;3.09;100.00;100139.88;103558;1300;24300;-25
2022/04/16 00:55:08;;;;;;;13.80;8.70;;;;;;;3.09;100.00;100142.02;103532;1300;22509;-27
2022/04/16 00:57:38;;;;;;;12.40;7.00;;;;;;;3.04;100.00;100145.78;103561;1300;25005;-30
2022/04/16 01:00:09;;;;;;;11.50;7.90;;;;;;;3.04;100.00;100146.32;103565;1300;25257;-26
2022/04/16 01:02:38;;;;;;;11.50;5.40;;;;;;;3.09;100.00;100150.67;103526;1300;25351;-25
2022/04/16 01:05:07;;;;;;;10.50;8.50;;;;;;;3.04;100.00;100150.23;103590;1300;23871;-29
2022/04/16 01:07:44;;;;;;;15.70;9.70;;;;;;;3.02;100.00;100156.55;103555;1302;22903;-29
2022/04/16 01:10:13;;;;;;;11.60;7.50;;;;;;;3.07;100.00;100157.95;103520;1300;23103;-25
2022/04/16 01:12:43;;;;;;;12.60;9.00;;;;;;;2.93;100.00;100167.45;103570;1300;24213;-26
2022/04/16 01:15:13;;;;;;;16.70;8.30;;;;;;;2.95;100.00;100160.87;103516;1300;25329;-31
2022/04/16 01:17:42;;;;;;;13.40;9.10;;;;;;;2.95;100.00;100163.00;103534;1300;22814;-29
2022/04/16 01:20:11;;;;;;;8.70;6.10;;;;;;;2.99;100.00;100164.83;103538;1299;24372;-27
2022/04/16 01:22:40;;;;;;;9.70;7.80;;;;;;;2.98;100.00;100162.95;103536;1300;22493;-26
2022/04/16 01:25:09;;;;;;;11.40;8.90;;;;;;;2.88;100.00;100167.52;103535;1300;22644;-29
2022/04/16 01:27:43;;;;;;;9.70;6.70;;;;;;;2.83;100.00;100168.60;103565;1302;24034;-25
2022/04/16 01:30:13;;;;;;;11.50;9.10;;;;;;;2.98;100.00;100172.83;103522;1301;22500;-29
2022/04/16 01:32:42;;;;;;;11.10;7.00;;;;;;;3.00;100.00;100175.46;103568;1300;24241;-29
2022/04/16 01:35:11;;;;;;;9.50;6.80;;;;;;;2.98;100.00;100180.23;103541;1301;23610;-29
2022/04/16 01:37:41;;;;;;;14.00;7.50;;;;;;;3.01;100.00;100184.05;103633;1302;22489;-29
2022/04/16 01:40:11;;;;;;;12.60;8.00;;;;;;;2.99;100.00;100185.80;103647;1302;24973;-30
2022/04/16 01:42:41;;;;;;;9.70;8.00;;;;;;;2.95;100.00;100193.27;103571;1300;25229;-28
2022/04/16 01:45:10;;;;;;;4.70;3.40;;;;;;;3.04;100.00;100190.54;103588;1300;22610;-27
2022/04/16 01:47:39;;;;;;;11.90;9.50;;;;;;;2.94;100.00;100189.98;103556;1302;22509;-25
2022/04/16 01:50:09;;;;;;;13.70;8.70;;;;;;;2.98;100.00;100195.08;103635;1301;24320;-29
2022/04/16 01:52:39;;;;;;;12.30;8.20;;;;;;;2.97;100.00;100195.02;103536;1300;25007;-29
2022/04/16 01:55:09;;;;;;;10.90;8.40;;;;;;;3.00;100.00;100199.36;103547;1300;23884;-24
2022/04/16 01:57:38;;;;;;;6.10;5.40;;;;;;;2.98;100.00;100201.83;103581;1302;25126;-25
2022/04/16 02:00:09;;;;;;;10.20;8.30;;;;;;;2.97;100.00;100200.38;103506;1300;22601;-29
2022/04/16 02:02:38;;;;;;;9.30;8.20;;;;;;;3.04;100.00;100203.24;103602;1300;25229;-24
2022/04/16 02:05:08;;;;;;;7.10;6.20;;;;;;;3.02;100.00;100204.73;103586;1300;22535;-25
2022/04/16 02:07:39;;;;;;;14.60;7.80;;;;;;;3.00;100.00;100205.73;103574;1300;23837;-25
2022/04/16 02:10:08;;;;;;;12.20;7.20;;;;;;;2.96;100.00;100209.11;103522;1302;23820;-29
2022/04/16 02:12:38;;;;;;;14.10;8.30;;;;;;;2.88;100.00;100207.64;103578;1300;22956;-29
2022/04/16 02:15:07;;;;;;;7.10;5.60;;;;;;;2.80;100.00;100213.40;103588;1300;24362;-29
2022/04/16 02:17:37;;;;;;;8.00;3.40;;;;;;;2.93;100.00;100208.43;103447;1302;25010;-25
2022/04/16 02:20:08;;;;;;;8.00;5.20;;;;;;;2.92;100.00;100216.70;103493;1302;24005;-29
2022/04/16 02:22:41;;;;;;;8.80;6.50;;;;;;;2.80;100.00;100220.83;103451;1302;25346;-30
2022/04/16 02:25:10;;;;;;;6.80;5.10;;;;;;;2.86;100.00;100226.54;103589;1300;23850;-27
2022/04/16 02:27:40;;;;;;;8.30;6.10;;;;;;;2.81;100.00;100228.78;103569;1300;23631;-25
2022/04/16 02:30:12;;;;;;;6.50;5.40;;;;;;;2.80;100.00;100233.73;103594;1301;25119;-29
2022/04/16 02:32:43;;;;;;;5.80;5.10;;;;;;;2.82;100.00;100236.95;103532;1302;23605;-29
2022/04/16 02:35:13;;;;;;;8.50;5.60;;;;;;;2.82;100.00;100238.20;103610;1300;22786;-27
2022/04/16 02:37:42;;;;;;;7.00;6.10;;;;;;;2.82;100.00;100241.20;103617;1302;24821;-29
2022/04/16 02:40:11;;;;;;;8.10;5.00;;;;;;;2.85;100.00;100239.07;103541;1300;24247;-29
2022/04/16 02:42:42;;;;;;;10.50;5.60;;;;;;;2.79;100.00;100237.91;103566;1300;24234;-29
2022/04/16 02:47:44;;;;;;;7.10;5.40;;;;;;;2.83;100.00;100235.83;103538;1300;22590;-25
2022/04/16 02:50:13;;;;;;;7.30;6.10;;;;;;;2.79;100.00;100237.70;103557;1300;23501;-25
2022/04/16 02:52:44;;;;;;;15.90;6.90;;;;;;;2.80;100.00;100241.59;103563;1300;22764;-28
2022/04/16 02:55:15;;;;;;;9.10;6.70;;;;;;;2.74;100.00;100244.88;103594;1302;23577;-30
2022/04/16 02:57:44;;;;;;;9.40;7.30;;;;;;;2.80;100.00;100243.30;103570;1302;24373;-31
2022/04/16 03:00:14;;;;;;;13.30;9.10;;;;;;;2.81;100.00;100247.61;103549;1300;24283;-29
2022/04/16 03:02:43;;;;;;;11.10;7.40;;;;;;;2.87;100.00;100250.01;103549;1300;24225;-25
2022/04/16 03:05:12;;;;;;;12.30;9.30;;;;;;;2.90;100.00;100252.27;103593;1300;23829;-25
2022/04/16 03:07:41;;;;;;;14.60;10.00;;;;;;;2.80;100.00;100252.69;103515;1301;22503;-27
2022/04/16 03:10:10;;;;;;;14.40;9.10;;;;;;;2.80;100.00;100253.73;103576;1302;24264;-29
2022/04/16 03:12:41;;;;;;;18.10;10.30;;;;;;;2.78;100.00;100253.35;103550;1302;24306;-31
2022/04/16 03:17:42;;;;;;;10.70;9.10;;;;;;;2.68;100.00;100262.13;103531;1300;22591;-24
2022/04/16 03:20:12;;;;;;;12.40;9.40;;;;;;;2.79;100.00;100261.80;103586;1300;23610;-31
2022/04/16 03:22:42;;;;;;;16.20;10.60;;;;;;;2.75;100.00;100270.02;103505;1302;22805;-29
2022/04/16 03:25:11;;;;;;;11.30;7.70;;;;;;;2.74;100.00;100270.81;103626;1300;26114;-31
2022/04/16 03:27:41;;;;;;;25.20;8.50;;;;;;;2.73;100.00;100274.52;103530;1300;24436;-27
2022/04/16 03:30:10;;;;;;;9.90;8.10;;;;;;;2.73;100.00;100278.38;103560;1300;22647;-28
2022/04/16 03:32:39;;;;;;;8.70;7.40;;;;;;;2.82;100.00;100276.96;103543;1301;23917;-25
2022/04/16 03:35:09;;;;;;;16.60;11.70;;;;;;;2.85;100.00;100275.09;103603;1302;24238;-30
2022/04/16 03:37:37;;;;;;;16.30;8.80;;;;;;;2.81;100.00;100275.45;103531;1302;22607;-29
2022/04/16 03:40:07;;;;;;;7.20;6.30;;;;;;;2.73;100.00;100276.23;103545;1301;23875;-25
2022/04/16 03:42:43;;;;;;;9.80;7.70;;;;;;;2.78;100.00;100278.35;103547;1301;22636;-31
2022/04/16 03:45:18;;;;;;;11.40;9.00;;;;;;;2.69;100.00;100276.23;103512;1300;22888;-29
2022/04/16 03:47:48;;;;;;;11.20;8.20;;;;;;;2.70;100.00;100279.31;103513;1302;23134;-25
2022/04/16 03:50:17;;;;;;;10.80;9.00;;;;;;;2.78;100.00;100276.52;103540;1301;23874;-29
2022/04/16 03:52:47;;;;;;;8.40;6.70;;;;;;;2.92;99.85;100287.46;103558;1300;25526;-29
2022/04/16 04:00:23;;;;;;;9.00;6.30;;;;;;;2.68;100.00;100293.84;103521;1300;23864;-25
2022/04/16 04:02:52;;;;;;;9.50;7.20;;;;;;;2.65;100.00;100300.02;103458;1302;22767;-31
2022/04/16 04:05:21;;;;;;;11.10;9.10;;;;;;;2.62;100.00;100305.10;103634;1302;24247;-25
2022/04/16 04:07:50;;;;;;;9.80;7.50;;;;;;;2.64;100.00;100307.01;103544;1300;23800;-27
2022/04/16 04:10:19;;;;;;;16.30;8.60;;;;;;;2.67;100.00;100311.23;103596;1299;23610;-29
2022/04/16 04:12:48;;;;;;;11.70;7.30;;;;;;;2.76;100.00;100312.04;103280;1300;391042;-31
2022/04/16 04:15:17;;;;;;;15.50;9.90;;;;;;;2.72;100.00;100310.41;103531;1300;23805;-25
2022/04/16 04:17:46;;;;;;;15.40;8.10;;;;;;;2.67;100.00;100311.23;103594;1301;24355;-27
2022/04/16 04:20:15;;;;;;;11.60;8.70;;;;;;;2.70;100.00;100316.63;103602;1300;24376;-30
2022/04/16 04:22:44;;;;;;;10.20;8.40;;;;;;;2.75;100.00;100315.83;103591;1302;22833;-29
2022/04/16 04:25:13;;;;;;;11.30;8.60;;;;;;;2.72;100.00;100318.59;103539;1301;24365;-25
2022/04/16 04:27:43;;;;;;;12.30;9.50;;;;;;;2.67;100.00;100321.12;103474;1302;22498;-25
2022/04/16 04:30:12;;;;;;;15.70;10.00;;;;;;;2.71;100.00;100318.35;103608;1300;24328;-28
2022/04/16 04:32:41;;;;;;;13.60;9.80;;;;;;;2.68;100.00;100324.75;103571;1302;23604;-25
2022/04/16 04:35:10;;;;;;;14.80;6.90;;;;;;;2.61;100.00;100327.24;103695;1300;24058;-25
2022/04/16 04:37:39;;;;;;;11.40;9.20;;;;;;;2.64;100.00;100330.88;103595;1300;24226;-25
2022/04/16 04:40:08;;;;;;;11.60;9.90;;;;;;;2.62;100.00;100335.14;103472;1300;23531;-29
2022/04/16 04:42:37;;;;;;;17.10;9.20;;;;;;;2.62;100.00;100336.06;103576;1300;22507;-29
2022/04/16 04:45:08;;;;;;;10.20;9.10;;;;;;;2.73;99.92;100341.33;103543;1301;23983;-27
2022/04/16 04:47:37;;;;;;;10.50;9.10;;;;;;;2.69;99.79;100344.27;103546;1302;22916;-25
2022/04/16 04:50:07;;;;;;;19.30;9.00;;;;;;;2.68;99.91;100347.91;103538;1300;22743;-28
2022/04/16 04:52:37;;;;;;;8.00;6.60;;;;;;;2.70;99.79;100353.54;103523;1301;24350;-31
2022/04/16 04:55:08;;;;;;;12.50;8.80;;;;;;;2.66;99.92;100357.58;103550;1300;25051;-25
2022/04/16 04:57:37;;;;;;;9.40;7.90;;;;;;;2.65;100.00;100363.02;103537;1302;25058;-25
2022/04/16 05:00:07;;;;;;;10.70;8.50;;;;;;;2.70;99.69;100361.70;103480;1302;23003;-25
2022/04/16 05:02:40;;;;;;;9.00;7.20;;;;;;;2.66;99.33;100365.08;103564;1300;23846;-25
2022/04/16 05:05:10;;;;;;;11.50;8.80;;;;;;;2.70;99.47;100364.93;103587;1301;24228;-30
2022/04/16 05:07:39;;;;;;;21.10;9.20;;;;;;;2.73;99.48;100370.52;103555;1300;24246;-25
2022/04/16 05:10:08;;;;;;;9.60;7.30;;;;;;;2.79;99.10;100375.17;103560;1302;24356;-29
2022/04/16 05:12:37;;;;;;;11.20;8.60;;;;;;;2.73;98.75;100375.75;103502;1300;23124;-29
2022/04/16 05:15:07;;;;;;;9.30;6.70;;;;;;;2.78;98.41;100378.09;103586;1300;22508;-29
2022/04/16 05:17:37;;;;;;;14.00;7.60;;;;;;;2.85;98.16;100382.23;103583;1300;23614;-31
2022/04/16 05:20:07;;;;;;;11.70;8.60;;;;;;;2.78;97.99;100386.01;103431;1302;24506;-31
2022/04/16 05:22:37;;;;;;;14.10;7.60;;;;;;;2.76;97.87;100389.55;103526;1300;26191;-25
2022/04/16 05:25:07;;;;;;;10.10;8.60;;;;;;;2.85;97.45;100391.30;103623;1300;24310;-24
2022/04/16 05:27:35;;;;;;;15.60;8.10;;;;;;;2.82;97.52;100396.48;103592;1302;24248;-25
2022/04/16 05:30:06;;;;;;;8.00;6.80;;;;;;;2.78;97.76;100400.52;103575;1300;24318;-25
2022/04/16 05:32:36;;;;;;;11.70;7.00;;;;;;;2.82;97.20;100404.98;103556;1300;25419;-31
2022/04/16 05:35:07;;;;;;;17.30;8.10;;;;;;;2.80;96.80;100407.60;103560;1301;24218;-31
2022/04/16 05:37:36;;;;;;;10.30;9.00;;;;;;;2.83;97.15;100410.08;103535;1302;24312;-29
2022/04/16 05:40:06;;;;;;;8.40;7.50;;;;;;;2.77;96.82;100410.13;103597;1300;23936;-25
2022/04/16 05:42:40;;;;;;;14.70;7.90;;;;;;;2.78;96.99;100414.50;103741;1301;23596;-25
2022/04/16 05:45:10;;;;;;;13.20;7.30;;;;;;;2.88;96.67;100412.64;103507;1302;24992;-31
2022/04/16 05:47:41;;;;;;;9.30;6.00;;;;;;;2.87;96.79;100416.41;103431;1300;24247;-27
2022/04/16 05:50:10;;;;;;;10.90;7.30;;;;;;;2.95;97.14;100418.47;103572;1300;24358;-24
2022/04/16 05:52:39;;;;;;;8.30;6.30;;;;;;;2.97;96.81;100422.73;103543;1301;23367;-29
2022/04/16 05:55:09;;;;;;;9.80;6.00;;;;;;;3.05;96.18;100428.58;103533;1301;23822;-30
2022/04/16 05:57:38;;;;;;;7.60;5.50;;;;;;;3.03;96.10;100427.91;103569;1300;24284;-24
2022/04/16 06:00:07;;;;;;;8.70;6.40;;;;;;;3.02;96.11;100433.44;103560;1300;23865;-25
2022/04/16 06:02:37;;;;;;;7.10;5.50;;;;;;;3.08;95.53;100432.83;103574;1302;23963;-31
2022/04/16 06:05:06;;;;;;;6.00;4.60;;;;;;;3.08;94.23;100436.69;103473;1300;23854;-25
2022/04/16 06:07:35;;;;;;;7.70;5.50;;;;;;;2.99;94.54;100432.63;103513;1300;22745;-29
2022/04/16 06:10:05;;;;;;;5.80;4.80;;;;;;;3.03;94.54;100436.19;103549;1300;25122;-25
2022/04/16 06:12:34;;;;;;;5.90;5.10;;;;;;;3.04;94.35;100431.88;103618;1300;23789;-25
2022/04/16 06:15:03;;;;;;;8.80;5.10;;;;;;;3.02;94.06;100436.50;103640;1300;22503;-29
2022/04/16 06:17:33;;;;;;;6.40;4.80;;;;;;;3.08;93.99;100442.70;103534;1302;22502;-31
2022/04/16 06:20:04;;;;;;;5.60;5.10;;;;;;;3.04;94.60;100445.67;103593;1300;22518;-29
2022/04/16 06:22:33;;;;;;;4.90;4.40;;;;;;;3.17;93.99;100445.15;103623;1300;26166;-29
2022/04/16 06:25:02;;;;;;;7.30;4.30;;;;;;;3.22;94.08;100448.13;103593;1300;23755;-25
2022/04/16 06:27:31;;;;;;;6.10;5.10;;;;;;;3.27;93.39;100453.74;103609;1300;23821;-29
2022/04/16 06:30:01;;;;;;;6.80;5.10;;;;;;;3.28;93.44;100456.29;103596;1300;23789;-28
2022/04/16 06:32:29;;;;;;;5.20;3.50;;;;;;;3.32;92.97;100460.99;103513;1300;22513;-25
2022/04/16 06:34:58;;;;;;;8.00;5.40;;;;;;;3.39;92.59;100459.70;103530;1300;23862;-31
2022/04/16 06:37:27;;;;;;;5.00;3.90;;;;;;;3.53;91.76;100462.08;103509;1301;23639;-27
2022/04/16 06:39:56;;;;;;;4.00;3.60;;;;;;;3.48;92.15;100458.59;103653;1302;22721;-28
2022/04/16 06:42:26;;;;;;;4.30;4.00;;;;;;;3.52;91.82;100457.23;103588;1300;24260;-28
2022/04/16 06:44:55;;;;;;;5.30;2.70;;;;;;;3.54;91.80;100458.95;103569;1300;24224;-26
2022/04/16 06:47:24;;;;;;;5.20;3.50;;;;;;;3.69;90.16;100458.65;103555;1302;22505;-25
2022/04/16 06:49:53;;;;;;;6.10;3.70;;;;;;;3.75;89.23;100459.19;103591;1301;23741;-29
2022/04/16 06:52:22;;;;;;;11.00;3.90;;;;;;;3.75;90.31;100463.30;103561;1300;23788;-28
2022/04/16 06:54:51;;;;;;;6.60;4.70;;;;;;;3.76;89.14;100462.83;103513;1300;24257;-28
2022/04/16 06:57:20;;;;;;;3.80;3.20;;;;;;;3.70;88.91;100469.69;103548;1302;24301;-25
2022/04/16 06:59:49;;;;;;;4.70;3.10;;;;;;;3.79;90.01;100472.92;103652;1300;22511;-25
2022/04/16 07:02:17;;;;;;;3.00;2.40;;;;;;;3.85;89.11;100474.90;103557;1299;24249;-29
2022/04/16 07:04:46;;;;;;;4.10;2.40;;;;;;;3.84;88.56;100475.11;103567;1300;25120;-23
2022/04/16 07:07:15;;;;;;;3.70;2.10;;;;;;;3.86;87.21;100484.67;103562;1300;22508;-28
2022/04/16 07:09:44;;;;;;;1.80;1.30;;;;;;;3.87;87.19;100486.90;103502;1302;23848;-29
2022/04/16 07:12:13;;;;;;;2.30;1.50;;;;;;;4.01;85.85;100488.74;103575;1300;22775;-28
2022/04/16 07:14:42;;;;;;;3.20;1.90;;;;;;;4.09;84.27;100490.23;103584;1300;24178;-31
2022/04/16 07:17:11;;;;;;;1.20;1.10;;;;;;;4.16;83.10;100492.30;103570;1300;25239;-26
2022/04/16 07:19:40;;;;;;;5.00;1.50;;;;;;;4.17;81.37;100494.22;103617;1300;22821;-30
2022/04/16 07:22:09;;;;;;;1.80;1.20;;;;;;;4.17;79.05;100495.61;103661;1300;22511;-25
2022/04/16 07:24:41;;;;;;;4.20;1.60;;;;;;;4.12;78.64;100506.13;103693;1300;24236;-27
2022/04/16 07:27:10;;;;;;;3.20;1.70;;;;;;;4.31;76.88;100506.29;103584;1302;25036;-29
2022/04/16 07:29:39;;;;;;;2.60;1.50;;;;;;;4.30;75.57;100504.07;103579;1300;23073;-27
2022/04/16 07:32:09;;;;;;;1.80;1.10;;;;;;;4.53;76.48;100507.64;103630;1300;22514;-30
2022/04/16 07:34:38;;;;;;;1.70;1.30;;;;;;;4.74;74.89;100503.54;103527;1302;24351;-29
2022/04/16 07:37:07;;;;;;;3.80;1.90;;;;;;;4.59;73.21;100504.63;103598;1300;22872;-24
2022/04/16 07:39:36;;;;;;;2.20;1.00;;;;;;;4.65;73.31;100500.75;103527;1300;24383;-29
2022/04/16 07:42:05;;;;;;;3.30;1.40;;;;;;;4.83;70.64;100500.28;103559;1301;22641;-25
2022/04/16 07:44:35;;;;;;;1.20;0.70;;;;;;;4.90;70.27;100507.46;103555;1300;22508;-25
2022/04/16 07:47:04;;;;;;;2.20;1.20;;;;;;;4.61;69.63;100511.90;103612;1300;23894;-25
2022/04/16 07:49:34;;;;;;;1.50;0.90;;;;;;;4.65;68.98;100509.82;103593;1300;24260;-23
2022/04/16 07:52:03;;;;;;;4.00;1.30;;;;;;;4.67;69.53;100506.41;103549;1301;23787;-27
2022/04/16 07:54:32;;;;;;;3.00;1.40;;;;;;;5.21;69.33;100515.79;103566;1300;22499;-29
2022/04/16 07:57:01;;;;;;;1.60;1.20;;;;;;;5.43;67.86;100512.71;103603;1300;24119;-28
2022/04/16 07:59:30;;;;;;;4.30;1.30;;;;;;;5.85;68.42;100511.98;103568;1300;24996;-31
2022/04/16 08:01:59;;;;;;;1.00;0.70;;;;;;;5.83;67.83;100518.94;103591;1300;22604;-29
2022/04/16 08:04:28;;;;;;;1.70;1.10;;;;;;;5.58;67.11;100528.45;103613;1300;22677;-25
2022/04/16 08:06:57;;;;;;;1.70;0.80;;;;;;;5.36;67.46;100531.86;103586;1300;22731;-25
2022/04/16 08:09:26;;;;;;;4.40;1.10;;;;;;;5.65;67.60;100530.00;103551;1300;24395;-29
2022/04/16 08:11:57;;;;;;;2.60;1.40;;;;;;;5.72;66.98;100529.02;103541;1300;24241;-25
2022/04/16 08:14:26;;;;;;;3.30;1.30;;;;;;;5.98;65.41;100527.55;103579;1300;25447;-28
2022/04/16 08:16:56;;;;;;;10.30;3.30;;;;;;;6.26;63.28;100518.61;103546;1300;22921;-29
2022/04/16 08:19:25;;;;;;;1.80;1.00;;;;;;;6.43;63.47;100524.87;103601;1300;23623;-31
2022/04/16 08:21:54;;;;;;;1.30;0.70;;;;;;;6.81;63.54;100527.52;103544;1300;25068;-28
2022/04/16 08:26:56;;;;;;;1.10;0.70;;;;;;;7.56;64.04;100524.11;103507;1302;22770;-29
2022/04/16 08:29:25;;;;;;;3.00;1.00;;;;;;;7.55;61.56;100525.65;103593;1300;23894;-29
2022/04/16 08:31:54;;;;;;;1.10;0.60;;;;;;;7.48;59.58;100531.80;103546;1300;25090;-25
2022/04/16 08:34:23;;;;;;;9.70;2.60;;;;;;;7.06;61.09;100535.84;103575;1301;24005;-25
2022/04/16 08:36:52;;;;;;;1.30;0.80;;;;;;;7.60;62.87;100540.64;103522;1300;24023;-29
2022/04/16 08:39:22;;;;;;;1.30;0.60;;;;;;;7.63;61.63;100544.61;103531;1301;22629;-27
2022/04/16 08:41:51;;;;;;;1.40;0.50;;;;;;;7.68;62.22;100546.98;103647;1300;23813;-25
2022/04/16 08:44:20;;;;;;;0.80;0.60;;;;;;;7.71;59.78;100545.45;103620;1301;24340;-29
2022/04/16 08:46:49;;;;;;;1.50;0.70;;;;;;;7.77;60.26;100552.87;103595;1300;24215;-29
2022/04/16 08:49:18;;;;;;;2.10;0.70;;;;;;;7.91;58.39;100546.90;103638;1300;24259;-31
2022/04/16 08:51:47;;;;;;;0.70;0.30;;;;;;;7.76;58.36;100548.20;103568;1300;23613;-25
2022/04/16 08:54:16;;;;;;;10.10;3.40;;;;;;;8.33;59.36;100550.94;103548;1300;24192;-25
2022/04/16 08:56:45;;;;;;;4.00;1.40;;;;;;;8.56;57.41;100549.31;103687;1300;22497;-30
2022/04/16 08:59:14;;;;;;;2.90;1.00;;;;;;;8.57;57.35;100556.61;103626;1300;24431;-29
2022/04/16 09:01:43;;;;;;;1.40;0.70;;;;;;;8.27;56.75;100557.07;103599;1300;22807;-29
2022/04/16 09:04:19;;;;;;;1.20;0.70;;;;;;;8.12;56.83;100561.52;103591;1300;24218;-25
2022/04/16 09:06:56;;;;;;;2.50;1.30;;;;;;;8.07;55.89;100559.77;103593;1300;23800;-29
2022/04/16 09:09:25;;;;;;;1.60;1.00;;;;;;;8.30;54.19;100556.36;103566;1300;25066;-25
2022/04/16 09:11:55;;;;;;;2.70;1.90;;;;;;;7.90;54.56;100555.31;103581;1300;23614;-25
2022/04/16 09:14:31;;;;;;;3.60;1.60;;;;;;;7.75;54.86;100564.14;103593;1300;22512;-26
2022/04/16 09:17:00;;;;;;;3.30;1.20;;;;;;;7.32;56.90;100571.70;103574;1300;22632;-25
2022/04/16 09:19:29;;;;;;;5.90;1.20;;;;;;;7.41;57.02;100569.58;103520;1300;22856;-30
2022/04/16 09:21:58;;;;;;;3.20;1.00;;;;;;;7.41;55.95;100576.16;103424;1302;22674;-25
2022/04/16 09:24:27;;;;;;;2.90;1.10;;;;;;;7.38;55.42;100571.06;103598;1300;24997;-28
2022/04/16 09:26:56;;;;;;;1.10;0.40;;;;;;;7.75;54.39;100571.40;103679;1300;22502;-27
2022/04/16 09:29:25;;;;;;;2.10;1.00;;;;;;;7.76;53.51;100572.75;103580;1300;24213;-29
2022/04/16 09:31:54;;;;;;;2.70;0.90;;;;;;;8.14;53.62;100565.84;103591;1300;23603;-29
2022/04/16 09:34:23;;;;;;;1.60;0.70;;;;;;;8.27;52.68;100568.80;103633;1300;22517;-25
2022/04/16 09:36:54;;;;;;;4.70;1.20;;;;;;;8.59;53.68;100571.89;103293;1300;22812;-31
2022/04/16 09:39:24;;;;;;;2.40;1.30;;;;;;;8.54;52.24;100573.62;103516;1300;23603;-31
2022/04/16 09:41:54;;;;;;;2.40;1.00;;;;;;;8.90;50.85;100581.42;103454;1302;24260;-29
2022/04/16 09:44:27;;;;;;;1.30;0.60;;;;;;;8.80;50.51;100581.90;103585;1300;24214;-25
2022/04/16 09:46:57;;;;;;;2.30;0.60;;;;;;;8.96;50.29;100578.86;103461;1300;24362;-29
2022/04/16 09:49:26;;;;;;;0.70;0.50;;;;;;;9.41;51.31;100579.53;103529;1300;23611;-27
2022/04/16 09:51:55;;;;;;;1.90;0.70;;;;;;;9.47;52.36;100586.05;103583;1299;22501;-25
2022/04/16 09:54:23;;;;;;;2.30;1.10;;;;;;;9.79;52.88;100588.29;103582;1300;24303;-30
2022/04/16 09:56:52;;;;;;;1.30;0.70;;;;;;;9.85;52.75;100589.40;103623;1300;23796;-29
2022/04/16 09:59:22;;;;;;;1.40;0.70;;;;;;;10.28;51.27;100594.45;103587;1300;23763;-31
2022/04/16 10:01:51;;;;;;;1.50;0.40;;;;;;;10.25;50.01;100591.88;103553;1300;22554;-25
2022/04/16 10:04:20;;;;;;;1.80;0.90;;;;;;;9.77;48.90;100604.13;103613;1300;23927;-27
2022/04/16 10:06:51;;;;;;;1.40;0.80;;;;;;;9.49;47.33;100606.02;103672;1300;22508;-25
2022/04/16 10:09:22;;;;;;;1.20;0.80;;;;;;;9.41;48.38;100612.81;103498;1300;22613;-26
2022/04/16 10:14:33;;;;;;;3.90;0.60;;;;;;;9.74;47.75;100604.32;103539;1300;24284;-25
2022/04/16 10:17:06;;;;;;;1.50;0.90;;;;;;;9.40;47.71;100607.17;103593;1300;23056;-24
2022/04/16 10:19:39;;;;;;;1.20;0.70;;;;;;;9.72;47.30;100606.86;103550;1300;24208;-28
2022/04/16 10:22:08;;;;;;;2.60;1.00;;;;;;;9.85;47.47;100606.40;103570;1300;25137;-30
2022/04/16 10:24:47;;;;;;;1.00;0.70;;;;;;;9.96;47.98;100612.35;103531;1300;24242;-28
2022/04/16 10:27:22;;;;;;;1.50;0.70;;;;;;;9.53;46.19;100617.99;103582;1300;22515;-29
2022/04/16 10:29:51;;;;;;;1.80;0.80;;;;;;;9.35;47.28;100619.17;103537;1300;22606;-28
2022/04/16 10:32:20;;;;;;;0.80;0.50;;;;;;;9.26;48.08;100615.08;103668;1300;23971;-28
2022/04/16 10:34:49;;;;;;;0.60;0.40;;;;;;;9.71;48.47;100610.95;103653;1300;25205;-25
2022/04/16 10:37:21;;;;;;;0.80;0.60;;;;;;;9.35;48.73;100612.34;103528;1300;24240;-25
2022/04/16 10:39:52;;;;;;;1.80;0.60;;;;;;;9.70;48.80;100612.85;103612;1300;26128;-25
2022/04/16 10:42:28;;;;;;;0.70;0.40;;;;;;;9.68;46.28;100611.07;103597;1300;22606;-29
2022/04/16 10:45:07;;;;;;;1.10;0.50;;;;;;;9.70;47.50;100608.30;103574;1300;23789;-25
2022/04/16 10:47:38;;;;;;;1.10;0.40;;;;;;;9.71;48.55;100616.27;103576;1300;22726;-25
2022/04/16 10:50:18;;;;;;;1.10;0.70;;;;;;;9.68;48.83;100616.58;103638;1300;22991;-25
2022/04/16 10:52:54;;;;;;;1.20;0.50;;;;;;;9.99;48.47;100613.44;103645;1299;24239;-29
2022/04/16 10:55:30;;;;;;;0.40;0.30;;;;;;;9.56;47.18;100619.09;103536;1300;24212;-29
2022/04/16 10:58:01;;;;;;;0.90;0.40;;;;;;;9.33;47.23;100621.65;103511;1300;23599;-26
2022/04/16 11:00:36;;;;;;;1.20;1.10;;;;;;;9.62;45.78;100616.64;103591;1300;24307;-28
2022/04/16 11:03:08;;;;;;;1.10;0.50;;;;;;;9.44;46.72;100621.92;103580;1300;24338;-29
2022/04/16 11:05:37;;;;;;;1.90;0.40;;;;;;;9.64;46.35;100620.36;103382;1300;23599;-25
2022/04/16 11:08:07;;;;;;;1.40;0.80;;;;;;;10.34;45.64;100621.37;103565;1300;22994;-26
2022/04/16 11:10:36;;;;;;;2.00;0.80;;;;;;;10.19;45.24;100616.35;103634;1300;24359;-25
2022/04/16 11:13:05;;;;;;;1.30;0.90;;;;;;;10.14;44.10;100623.89;103594;1300;22513;-28
2022/04/16 11:15:34;;;;;;;2.90;1.30;;;;;;;9.97;44.16;100623.16;103623;1300;24331;-25
2022/04/16 11:18:03;;;;;;;3.10;1.80;;;;;;;9.99;45.42;100623.90;103600;1300;22545;-26
2022/04/16 11:20:32;;;;;;;2.60;2.00;;;;;;;10.24;44.98;100625.72;103601;1300;24273;-25
2022/04/16 11:23:02;;;;;;;1.60;0.70;;;;;;;10.27;43.85;100621.75;103588;1300;24255;-29
2022/04/16 11:34:14;;;;;;;1.70;0.80;;;;;;;9.89;44.09;100622.05;103507;1300;24289;-28
2022/04/16 11:36:08;;;;;;;1.60;0.80;;;;;;;10.12;47.04;100637.17;103655;1300;23861;-29
2022/04/16 11:38:39;;;;;;;2.60;1.10;;;;;;;9.78;47.64;100639.51;103621;1299;22643;-29
2022/04/16 11:41:10;;;;;;;3.20;1.80;;;;;;;9.65;48.61;100641.96;103565;1300;25355;-25
2022/04/16 11:43:46;;;;;;;1.50;0.70;;;;;;;9.94;47.70;100644.95;103579;1300;24860;-30
2022/04/16 11:46:15;;;;;;;1.90;0.90;;;;;;;9.66;47.98;100644.55;103551;1300;22520;-28
2022/04/16 11:48:46;;;;;;;0.70;0.40;;;;;;;9.73;48.00;100642.41;103548;1300;23435;-25
2022/04/16 11:51:16;;;;;;;0.90;0.60;;;;;;;10.08;46.79;100653.09;103609;1300;24317;-26
2022/04/16 11:53:47;;;;;;;1.00;0.60;;;;;;;9.92;45.75;100646.32;103576;1300;24240;-28